createdAt,value
2018-06-25T00:00:58.686Z,1016.95
2018-06-25T00:01:58.713Z,1016.91
2018-06-25T00:02:58.716Z,1016.95
2018-06-25T00:03:58.687Z,1016.91
2018-06-25T00:04:58.679Z,1016.92
2018-06-25T00:05:58.700Z,1016.92
2018-06-25T00:06:58.690Z,1016.85
2018-06-25T00:07:58.719Z,1016.82
2018-06-25T00:08:58.710Z,1016.83
2018-06-25T00:09:58.705Z,1016.80
2018-06-25T00:10:58.690Z,1016.86
2018-06-25T00:11:58.706Z,1016.84
2018-06-25T00:12:58.680Z,1016.85
2018-06-25T00:13:58.722Z,1016.83
2018-06-25T00:14:58.913Z,1016.82
2018-06-25T00:15:58.715Z,1016.84
2018-06-25T00:16:58.677Z,1016.84
2018-06-25T00:17:58.716Z,1016.84
2018-06-25T00:18:58.693Z,1016.89
2018-06-25T00:19:58.725Z,1016.88
2018-06-25T00:20:58.739Z,1016.89
2018-06-25T00:21:58.738Z,1016.84
2018-06-25T00:22:58.760Z,1016.85
2018-06-25T00:23:59.985Z,1016.84
2018-06-25T00:24:58.738Z,1016.82
2018-06-25T00:25:58.705Z,1016.88
2018-06-25T00:26:58.710Z,1016.84
2018-06-25T00:27:58.719Z,1016.84
2018-06-25T00:28:58.730Z,1016.86
2018-06-25T00:29:58.685Z,1016.86
2018-06-25T00:30:58.754Z,1016.84
2018-06-25T00:31:58.725Z,1016.84
2018-06-25T00:32:58.721Z,1016.86
2018-06-25T00:33:58.714Z,1016.80
2018-06-25T00:34:58.687Z,1016.81
2018-06-25T00:35:58.693Z,1016.80
2018-06-25T00:36:58.706Z,1016.76
2018-06-25T00:37:58.764Z,1016.76
2018-06-25T00:38:58.754Z,1016.76
2018-06-25T00:39:58.736Z,1016.77
2018-06-25T00:40:58.718Z,1016.82
2018-06-25T00:41:58.760Z,1016.83
2018-06-25T00:42:58.823Z,1016.81
2018-06-25T00:43:58.754Z,1016.79
2018-06-25T00:44:58.737Z,1016.82
2018-06-25T00:45:58.723Z,1016.78
2018-06-25T00:46:58.831Z,1016.75
2018-06-25T00:47:58.762Z,1016.76
2018-06-25T00:48:58.728Z,1016.75
2018-06-25T00:49:58.754Z,1016.74
2018-06-25T00:50:58.842Z,1016.71
2018-06-25T00:51:58.761Z,1016.68
2018-06-25T00:52:58.749Z,1016.67
2018-06-25T00:53:58.772Z,1016.71
2018-06-25T00:54:58.762Z,1016.69
2018-06-25T00:55:58.739Z,1016.70
2018-06-25T00:56:58.733Z,1016.69
2018-06-25T00:57:58.737Z,1016.72
2018-06-25T00:58:58.764Z,1016.78
2018-06-25T00:59:58.749Z,1016.78
2018-06-25T01:00:58.765Z,1016.77
2018-06-25T01:01:58.761Z,1016.83
2018-06-25T01:02:58.783Z,1016.82
2018-06-25T01:03:58.736Z,1016.78
2018-06-25T01:04:58.756Z,1016.81
2018-06-25T01:05:58.815Z,1016.72
2018-06-25T01:06:58.780Z,1016.73
2018-06-25T01:07:58.763Z,1016.74
2018-06-25T01:08:58.781Z,1016.75
2018-06-25T01:09:58.810Z,1016.78
2018-06-25T01:10:58.803Z,1016.76
2018-06-25T01:11:58.761Z,1016.79
2018-06-25T01:12:58.780Z,1016.75
2018-06-25T01:13:58.785Z,1016.77
2018-06-25T01:14:58.763Z,1016.76
2018-06-25T01:15:58.776Z,1016.76
2018-06-25T01:16:58.785Z,1016.80
2018-06-25T01:17:58.801Z,1016.81
2018-06-25T01:18:58.816Z,1016.78
2018-06-25T01:19:58.908Z,1016.85
2018-06-25T01:20:58.780Z,1016.85
2018-06-25T01:21:58.774Z,1016.83
2018-06-25T01:22:58.800Z,1016.85
2018-06-25T01:23:58.839Z,1016.88
2018-06-25T01:24:58.770Z,1016.87
2018-06-25T01:25:58.811Z,1016.88
2018-06-25T01:26:58.775Z,1016.88
2018-06-25T01:27:58.810Z,1016.88
2018-06-25T01:28:58.819Z,1016.84
2018-06-25T01:29:58.891Z,1016.87
2018-06-25T01:30:58.810Z,1016.88
2018-06-25T01:31:58.851Z,1016.85
2018-06-25T01:32:58.841Z,1016.85
2018-06-25T01:33:58.843Z,1016.87
2018-06-25T01:34:58.872Z,1016.85
2018-06-25T01:35:58.852Z,1016.86
2018-06-25T01:36:58.825Z,1016.85
2018-06-25T01:37:58.797Z,1016.86
2018-06-25T01:38:58.832Z,1016.86
2018-06-25T01:39:58.837Z,1016.85
2018-06-25T01:40:58.864Z,1016.84
2018-06-25T01:41:58.853Z,1016.83
2018-06-25T01:42:58.817Z,1016.84
2018-06-25T01:43:58.903Z,1016.83
2018-06-25T01:44:58.801Z,1016.88
2018-06-25T01:45:58.856Z,1016.83
2018-06-25T01:46:58.859Z,1016.86
2018-06-25T01:47:58.835Z,1016.85
2018-06-25T01:48:58.856Z,1016.86
2018-06-25T01:49:58.841Z,1016.89
2018-06-25T01:50:59.404Z,1016.86
2018-06-25T01:51:58.875Z,1016.88
2018-06-25T01:52:58.836Z,1016.86
2018-06-25T01:53:58.848Z,1016.83
2018-06-25T01:54:58.830Z,1016.84
2018-06-25T01:55:58.843Z,1016.78
2018-06-25T01:56:58.892Z,1016.78
2018-06-25T01:57:58.839Z,1016.77
2018-06-25T01:58:58.833Z,1016.75
2018-06-25T01:59:58.887Z,1016.72
2018-06-25T02:00:58.925Z,1016.71
2018-06-25T02:01:58.855Z,1016.73
2018-06-25T02:02:58.890Z,1016.73
2018-06-25T02:03:58.862Z,1016.69
2018-06-25T02:04:58.892Z,1016.69
2018-06-25T02:05:58.841Z,1016.67
2018-06-25T02:06:58.905Z,1016.66
2018-06-25T02:07:58.874Z,1016.64
2018-06-25T02:08:58.878Z,1016.68
2018-06-25T02:09:58.905Z,1016.68
2018-06-25T02:10:58.868Z,1016.69
2018-06-25T02:11:58.906Z,1016.67
2018-06-25T02:12:58.891Z,1016.70
2018-06-25T02:13:58.883Z,1016.70
2018-06-25T02:14:58.896Z,1016.67
2018-06-25T02:15:58.894Z,1016.72
2018-06-25T02:16:58.862Z,1016.72
2018-06-25T02:17:58.894Z,1016.74
2018-06-25T02:18:58.939Z,1016.76
2018-06-25T02:19:58.864Z,1016.75
2018-06-25T02:20:58.898Z,1016.72
2018-06-25T02:21:58.954Z,1016.74
2018-06-25T02:22:58.904Z,1016.73
2018-06-25T02:23:58.880Z,1016.74
2018-06-25T02:24:58.894Z,1016.79
2018-06-25T02:25:58.871Z,1016.77
2018-06-25T02:26:58.928Z,1016.76
2018-06-25T02:27:58.899Z,1016.77
2018-06-25T02:28:58.916Z,1016.78
2018-06-25T02:29:58.919Z,1016.79
2018-06-25T02:30:58.910Z,1016.79
2018-06-25T02:31:58.936Z,1016.81
2018-06-25T02:32:58.898Z,1016.81
2018-06-25T02:33:58.884Z,1016.81
2018-06-25T02:34:58.888Z,1016.79
2018-06-25T02:35:58.918Z,1016.79
2018-06-25T02:36:58.904Z,1016.79
2018-06-25T02:37:58.917Z,1016.80
2018-06-25T02:38:58.959Z,1016.79
2018-06-25T02:39:58.900Z,1016.80
2018-06-25T02:40:58.922Z,1016.83
2018-06-25T02:41:58.938Z,1016.81
2018-06-25T02:42:59.022Z,1016.82
2018-06-25T02:43:58.928Z,1016.81
2018-06-25T02:44:58.993Z,1016.83
2018-06-25T02:45:59.003Z,1016.81
2018-06-25T02:46:58.929Z,1016.83
2018-06-25T02:47:58.981Z,1016.79
2018-06-25T02:48:58.926Z,1016.77
2018-06-25T02:49:58.930Z,1016.79
2018-06-25T02:50:58.952Z,1016.86
2018-06-25T02:51:58.923Z,1016.88
2018-06-25T02:52:58.911Z,1016.90
2018-06-25T02:53:58.928Z,1016.92
2018-06-25T02:54:58.926Z,1016.97
2018-06-25T02:55:58.953Z,1016.98
2018-06-25T02:56:58.938Z,1016.95
2018-06-25T02:57:58.960Z,1016.96
2018-06-25T02:58:58.929Z,1016.97
2018-06-25T02:59:58.946Z,1016.94
2018-06-25T03:00:58.928Z,1016.94
2018-06-25T03:01:58.919Z,1016.94
2018-06-25T03:02:58.937Z,1016.92
2018-06-25T03:03:58.992Z,1016.92
2018-06-25T03:04:58.957Z,1016.90
2018-06-25T03:05:58.953Z,1016.90
2018-06-25T03:06:58.962Z,1016.90
2018-06-25T03:07:58.977Z,1016.90
2018-06-25T03:08:58.936Z,1016.89
2018-06-25T03:09:58.969Z,1016.89
2018-06-25T03:10:58.983Z,1016.89
2018-06-25T03:11:58.983Z,1016.89
2018-06-25T03:12:58.988Z,1016.86
2018-06-25T03:13:58.996Z,1016.89
2018-06-25T03:14:58.980Z,1016.88
2018-06-25T03:15:58.951Z,1016.90
2018-06-25T03:16:59.023Z,1016.83
2018-06-25T03:17:59.044Z,1016.90
2018-06-25T03:18:58.954Z,1016.86
2018-06-25T03:19:59.109Z,1016.88
2018-06-25T03:20:59.336Z,1016.85
2018-06-25T03:21:59.014Z,1016.85
2018-06-25T03:22:59.007Z,1016.80
2018-06-25T03:23:58.984Z,1016.80
2018-06-25T03:24:58.994Z,1016.85
2018-06-25T03:25:59.002Z,1016.84
2018-06-25T03:26:58.964Z,1016.90
2018-06-25T03:27:59.032Z,1016.84
2018-06-25T03:28:58.994Z,1016.86
2018-06-25T03:29:58.975Z,1016.87
2018-06-25T03:30:59.020Z,1016.88
2018-06-25T03:31:58.981Z,1016.89
2018-06-25T03:32:58.985Z,1016.87
2018-06-25T03:33:58.983Z,1016.84
2018-06-25T03:34:58.989Z,1016.85
2018-06-25T03:35:59.047Z,1016.89
2018-06-25T03:36:59.007Z,1016.92
2018-06-25T03:37:59.055Z,1016.92
2018-06-25T03:38:58.984Z,1016.94
2018-06-25T03:39:59.008Z,1016.98
2018-06-25T03:40:59.033Z,1016.97
2018-06-25T03:41:59.030Z,1016.96
2018-06-25T03:42:59.039Z,1016.93
2018-06-25T03:43:59.026Z,1016.95
2018-06-25T03:44:59.028Z,1016.95
2018-06-25T03:45:59.090Z,1016.96
2018-06-25T03:46:59.027Z,1016.99
2018-06-25T03:47:59.011Z,1016.99
2018-06-25T03:48:59.018Z,1016.97
2018-06-25T03:49:58.999Z,1016.98
2018-06-25T03:50:59.013Z,1016.98
2018-06-25T03:51:59.015Z,1017.01
2018-06-25T03:52:59.007Z,1016.97
2018-06-25T03:53:59.925Z,1017.04
2018-06-25T03:54:59.050Z,1017.04
2018-06-25T03:55:59.059Z,1017.05
2018-06-25T03:56:59.060Z,1017.04
2018-06-25T03:57:59.034Z,1017.04
2018-06-25T03:58:59.928Z,1017.06
2018-06-25T03:59:59.065Z,1017.06
2018-06-25T04:00:59.123Z,1017.05
2018-06-25T04:01:59.087Z,1017.03
2018-06-25T04:02:59.044Z,1017.09
2018-06-25T04:03:59.026Z,1017.10
2018-06-25T04:04:59.095Z,1017.11
2018-06-25T04:05:59.061Z,1017.15
2018-06-25T04:06:59.072Z,1017.09
2018-06-25T04:07:59.095Z,1017.09
2018-06-25T04:08:59.078Z,1017.15
2018-06-25T04:09:59.061Z,1017.12
2018-06-25T04:10:59.094Z,1017.13
2018-06-25T04:11:59.067Z,1017.12
2018-06-25T04:13:00.015Z,1017.14
2018-06-25T04:13:59.057Z,1017.13
2018-06-25T04:14:59.083Z,1017.11
2018-06-25T04:15:59.076Z,1017.17
2018-06-25T04:16:59.128Z,1017.17
2018-06-25T04:17:59.086Z,1017.19
2018-06-25T04:18:59.108Z,1017.17
2018-06-25T04:19:59.083Z,1017.20
2018-06-25T04:20:59.087Z,1017.17
2018-06-25T04:21:59.099Z,1017.20
2018-06-25T04:22:59.109Z,1017.17
2018-06-25T04:23:59.112Z,1017.17
2018-06-25T04:24:59.141Z,1017.18
2018-06-25T04:25:59.130Z,1017.15
2018-06-25T04:26:59.092Z,1017.16
2018-06-25T04:27:59.066Z,1017.13
2018-06-25T04:28:59.129Z,1017.20
2018-06-25T04:29:59.091Z,1017.19
2018-06-25T04:30:59.107Z,1017.17
2018-06-25T04:31:59.147Z,1017.19
2018-06-25T04:32:59.096Z,1017.22
2018-06-25T04:33:59.125Z,1017.23
2018-06-25T04:34:59.103Z,1017.21
2018-06-25T04:35:59.201Z,1017.23
2018-06-25T04:36:59.117Z,1017.29
2018-06-25T04:37:59.100Z,1017.23
2018-06-25T04:38:59.126Z,1017.27
2018-06-25T04:39:59.132Z,1017.28
2018-06-25T04:40:59.132Z,1017.29
2018-06-25T04:41:59.257Z,1017.27
2018-06-25T04:43:00.046Z,1017.29
2018-06-25T04:43:59.137Z,1017.30
2018-06-25T04:44:59.099Z,1017.34
2018-06-25T04:45:59.105Z,1017.30
2018-06-25T04:46:59.095Z,1017.31
2018-06-25T04:47:59.105Z,1017.32
2018-06-25T04:48:59.115Z,1017.34
2018-06-25T04:49:59.098Z,1017.35
2018-06-25T04:50:59.949Z,1017.39
2018-06-25T04:51:59.153Z,1017.35
2018-06-25T04:52:59.129Z,1017.37
2018-06-25T04:53:59.138Z,1017.38
2018-06-25T04:54:59.153Z,1017.41
2018-06-25T04:55:59.120Z,1017.42
2018-06-25T04:56:59.146Z,1017.40
2018-06-25T04:57:59.145Z,1017.39
2018-06-25T04:58:59.109Z,1017.39
2018-06-25T04:59:59.147Z,1017.39
2018-06-25T05:00:59.162Z,1017.42
2018-06-25T05:01:59.171Z,1017.47
2018-06-25T05:02:59.954Z,1017.50
2018-06-25T05:03:59.133Z,1017.52
2018-06-25T05:04:59.954Z,1017.46
2018-06-25T05:05:59.129Z,1017.45
2018-06-25T05:06:59.128Z,1017.50
2018-06-25T05:07:59.159Z,1017.54
2018-06-25T05:08:59.129Z,1017.55
2018-06-25T05:09:59.214Z,1017.57
2018-06-25T05:10:59.188Z,1017.54
2018-06-25T05:11:59.140Z,1017.56
2018-06-25T05:12:59.208Z,1017.59
2018-06-25T05:13:59.198Z,1017.59
2018-06-25T05:14:59.131Z,1017.58
2018-06-25T05:15:59.203Z,1017.56
2018-06-25T05:16:59.180Z,1017.57
2018-06-25T05:17:59.194Z,1017.58
2018-06-25T05:18:59.180Z,1017.63
2018-06-25T05:19:59.196Z,1017.64
2018-06-25T05:20:59.196Z,1017.65
2018-06-25T05:21:59.186Z,1017.66
2018-06-25T05:22:59.190Z,1017.67
2018-06-25T05:23:59.212Z,1017.68
2018-06-25T05:24:59.232Z,1017.68
2018-06-25T05:25:59.156Z,1017.68
2018-06-25T05:26:59.191Z,1017.70
2018-06-25T05:27:59.196Z,1017.69
2018-06-25T05:28:59.200Z,1017.68
2018-06-25T05:29:59.226Z,1017.70
2018-06-25T05:30:59.160Z,1017.71
2018-06-25T05:31:59.185Z,1017.70
2018-06-25T05:32:59.204Z,1017.72
2018-06-25T05:33:59.216Z,1017.71
2018-06-25T05:34:59.170Z,1017.70
2018-06-25T05:35:59.317Z,1017.73
2018-06-25T05:36:59.208Z,1017.73
2018-06-25T05:37:59.216Z,1017.76
2018-06-25T05:38:59.195Z,1017.74
2018-06-25T05:39:59.957Z,1017.75
2018-06-25T05:40:59.234Z,1017.80
2018-06-25T05:41:59.187Z,1017.82
2018-06-25T05:42:59.200Z,1017.81
2018-06-25T05:43:59.208Z,1017.85
2018-06-25T05:44:59.281Z,1017.85
2018-06-25T05:45:59.268Z,1017.83
2018-06-25T05:46:59.233Z,1017.86
2018-06-25T05:47:59.288Z,1017.87
2018-06-25T05:48:59.297Z,1017.87
2018-06-25T05:49:59.238Z,1017.86
2018-06-25T05:50:59.224Z,1017.84
2018-06-25T05:51:59.192Z,1017.85
2018-06-25T05:52:59.250Z,1017.84
2018-06-25T05:53:59.232Z,1017.87
2018-06-25T05:54:59.202Z,1017.86
2018-06-25T05:55:59.298Z,1017.88
2018-06-25T05:56:59.258Z,1017.85
2018-06-25T05:57:59.249Z,1017.91
2018-06-25T05:58:59.304Z,1017.88
2018-06-25T05:59:59.224Z,1017.84
2018-06-25T06:00:59.235Z,1017.85
2018-06-25T06:01:59.222Z,1017.86
2018-06-25T06:02:59.259Z,1017.87
2018-06-25T06:03:59.226Z,1017.85
2018-06-25T06:04:59.293Z,1017.88
2018-06-25T06:05:59.264Z,1017.89
2018-06-25T06:06:59.972Z,1017.92
2018-06-25T06:07:59.301Z,1017.95
2018-06-25T06:08:59.315Z,1017.95
2018-06-25T06:09:59.263Z,1017.94
2018-06-25T06:10:59.300Z,1017.98
2018-06-25T06:11:59.300Z,1018.05
2018-06-25T06:12:59.364Z,1018.20
2018-06-25T06:13:59.321Z,1018.07
2018-06-25T06:14:59.305Z,1018.03
2018-06-25T06:15:59.271Z,1018.03
2018-06-25T06:16:59.275Z,1018.01
2018-06-25T06:17:59.302Z,1018.01
2018-06-25T06:18:59.262Z,1018.05
2018-06-25T06:19:59.270Z,1018.05
2018-06-25T06:20:59.255Z,1018.08
2018-06-25T06:21:59.295Z,1018.14
2018-06-25T06:22:59.275Z,1018.20
2018-06-25T06:23:59.269Z,1018.26
2018-06-25T06:24:59.306Z,1018.36
2018-06-25T06:25:59.414Z,1018.36
2018-06-25T06:26:59.276Z,1018.28
2018-06-25T06:27:59.326Z,1018.35
2018-06-25T06:28:59.284Z,1018.27
2018-06-25T06:29:59.264Z,1018.30
2018-06-25T06:30:59.277Z,1018.24
2018-06-25T06:31:59.403Z,1018.28
2018-06-25T06:32:59.330Z,1018.30
2018-06-25T06:33:59.303Z,1018.31
2018-06-25T06:34:59.295Z,1018.26
2018-06-25T06:35:59.285Z,1018.24
2018-06-25T06:36:59.317Z,1018.19
2018-06-25T06:37:59.981Z,1018.23
2018-06-25T06:38:59.314Z,1018.23
2018-06-25T06:39:59.449Z,1018.24
2018-06-25T06:40:59.313Z,1018.26
2018-06-25T06:41:59.301Z,1018.26
2018-06-25T06:42:59.309Z,1018.28
2018-06-25T06:43:59.411Z,1018.29
2018-06-25T06:44:59.356Z,1018.35
2018-06-25T06:45:59.321Z,1018.33
2018-06-25T06:46:59.339Z,1018.29
2018-06-25T06:47:59.365Z,1018.28
2018-06-25T06:48:59.340Z,1018.31
2018-06-25T06:49:59.308Z,1018.30
2018-06-25T06:50:59.305Z,1018.34
2018-06-25T06:51:59.388Z,1018.34
2018-06-25T06:53:01.382Z,1018.35
2018-06-25T06:54:20.621Z,1018.39
2018-06-25T06:54:59.377Z,1018.43
2018-06-25T06:56:00.113Z,1018.46
2018-06-25T06:56:59.349Z,1018.49
2018-06-25T06:57:59.339Z,1018.46
2018-06-25T06:58:59.331Z,1018.46
2018-06-25T06:59:59.407Z,1018.39
2018-06-25T07:00:59.416Z,1018.35
2018-06-25T07:01:59.355Z,1018.33
2018-06-25T07:02:59.415Z,1018.41
2018-06-25T07:03:59.382Z,1018.40
2018-06-25T07:04:59.365Z,1018.34
2018-06-25T07:05:59.418Z,1018.32
2018-06-25T07:06:59.403Z,1018.40
2018-06-25T07:07:59.344Z,1018.39
2018-06-25T07:08:59.331Z,1018.44
2018-06-25T07:09:59.336Z,1018.57
2018-06-25T07:10:59.434Z,1018.50
2018-06-25T07:11:59.421Z,1018.46
2018-06-25T07:12:59.500Z,1018.58
2018-06-25T07:13:59.413Z,1018.78
2018-06-25T07:14:59.461Z,1019.28
2018-06-25T07:15:59.464Z,1018.86
2018-06-25T07:16:59.389Z,1018.82
2018-06-25T07:18:00.530Z,1019.27
2018-06-25T07:18:59.408Z,1018.92
2018-06-25T07:19:59.395Z,1019.24
2018-06-25T07:20:59.407Z,1019.25
2018-06-25T07:21:59.405Z,1019.65
2018-06-25T07:22:59.362Z,1019.24
2018-06-25T07:23:59.392Z,1019.03
2018-06-25T07:24:59.402Z,1018.83
2018-06-25T07:25:59.453Z,1019.00
2018-06-25T07:26:59.411Z,1019.24
2018-06-25T07:27:59.445Z,1018.87
2018-06-25T07:28:59.379Z,1018.81
2018-06-25T07:29:59.501Z,1018.86
2018-06-25T07:30:59.428Z,1018.70
2018-06-25T07:31:59.569Z,1018.63
2018-06-25T07:32:59.488Z,1018.59
2018-06-25T07:33:59.487Z,1018.61
2018-06-25T07:34:59.517Z,1018.61
2018-06-25T07:36:00.021Z,1018.61
2018-06-25T07:36:59.496Z,1018.55
2018-06-25T07:37:59.491Z,1018.60
2018-06-25T07:38:59.430Z,1018.50
2018-06-25T07:39:59.553Z,1018.53
2018-06-25T07:40:59.451Z,1018.56
2018-06-25T07:41:59.572Z,1018.57
2018-06-25T07:42:59.538Z,1018.54
2018-06-25T07:43:59.535Z,1018.59
2018-06-25T07:44:59.474Z,1018.64
2018-06-25T07:46:00.108Z,1018.75
2018-06-25T07:46:59.504Z,1018.80
2018-06-25T07:48:00.011Z,1018.75
2018-06-25T07:48:59.467Z,1018.80
2018-06-25T07:49:59.501Z,1018.84
2018-06-25T07:50:59.460Z,1018.80
2018-06-25T07:51:59.514Z,1018.80
2018-06-25T07:52:59.481Z,1018.75
2018-06-25T07:53:59.526Z,1018.68
2018-06-25T07:54:59.491Z,1018.65
2018-06-25T07:55:59.444Z,1018.65
2018-06-25T07:56:59.450Z,1018.59
2018-06-25T07:57:59.516Z,1018.57
2018-06-25T07:58:59.464Z,1018.59
2018-06-25T07:59:59.471Z,1018.62
2018-06-25T08:00:59.569Z,1018.63
2018-06-25T08:02:00.022Z,1018.62
2018-06-25T08:02:59.495Z,1018.66
2018-06-25T08:03:59.676Z,1018.73
2018-06-25T08:04:59.484Z,1018.82
2018-06-25T08:05:59.513Z,1019.01
2018-06-25T08:06:59.512Z,1019.25
2018-06-25T08:07:59.524Z,1019.07
2018-06-25T08:08:59.512Z,1019.03
2018-06-25T08:09:59.535Z,1019.11
2018-06-25T08:10:59.559Z,1019.22
2018-06-25T08:12:00.523Z,1018.99
2018-06-25T08:13:00.063Z,1018.88
2018-06-25T08:13:59.537Z,1019.05
2018-06-25T08:15:00.210Z,1018.78
2018-06-25T08:15:59.683Z,1018.78
2018-06-25T08:16:59.691Z,1018.81
2018-06-25T08:17:59.687Z,1018.74
2018-06-25T08:18:59.637Z,1018.69
2018-06-25T08:19:59.547Z,1018.69
2018-06-25T08:20:59.535Z,1018.77
2018-06-25T08:22:00.083Z,1018.79
2018-06-25T08:22:59.627Z,1018.95
2018-06-25T08:23:59.664Z,1019.16
2018-06-25T08:24:59.741Z,1018.99
2018-06-25T08:26:02.137Z,1019.18
2018-06-25T08:26:59.535Z,1019.11
2018-06-25T08:27:59.563Z,1019.42
2018-06-25T08:28:59.540Z,1020.32
2018-06-25T08:29:59.711Z,1021.06
2018-06-25T08:31:01.143Z,1020.49
2018-06-25T08:32:00.621Z,1020.24
2018-06-25T08:32:59.800Z,1019.68
2018-06-25T08:33:59.791Z,1019.49
2018-06-25T08:34:59.609Z,1019.10
2018-06-25T08:35:59.761Z,1019.05
2018-06-25T08:36:59.903Z,1018.99
2018-06-25T08:38:00.647Z,1019.16
2018-06-25T08:38:59.647Z,1019.12
2018-06-25T08:39:59.737Z,1018.94
2018-06-25T08:40:59.670Z,1018.91
2018-06-25T08:41:59.697Z,1018.97
2018-06-25T08:42:59.611Z,1018.93
2018-06-25T08:44:00.792Z,1018.93
2018-06-25T08:44:59.802Z,1018.99
2018-06-25T08:46:00.032Z,1018.98
2018-06-25T08:46:59.682Z,1018.96
2018-06-25T08:47:59.666Z,1018.94
2018-06-25T08:48:59.705Z,1019.01
2018-06-25T08:49:59.822Z,1019.28
2018-06-25T08:50:59.836Z,1019.39
2018-06-25T08:51:59.729Z,1019.19
2018-06-25T08:52:59.791Z,1019.27
2018-06-25T08:53:59.662Z,1019.21
2018-06-25T08:54:59.707Z,1019.21
2018-06-25T08:56:00.296Z,1019.23
2018-06-25T08:57:00.637Z,1019.17
2018-06-25T08:58:00.300Z,1019.23
2018-06-25T08:58:59.900Z,1019.26
2018-06-25T08:59:59.782Z,1019.23
2018-06-25T09:01:00.215Z,1019.43
2018-06-25T09:02:00.551Z,1019.47
2018-06-25T09:02:59.693Z,1019.43
2018-06-25T09:03:59.732Z,1019.31
2018-06-25T09:05:00.544Z,1019.42
2018-06-25T09:05:59.659Z,1019.25
2018-06-25T09:06:59.646Z,1019.13
2018-06-25T09:07:59.649Z,1019.02
2018-06-25T09:08:59.660Z,1019.05
2018-06-25T09:09:59.656Z,1019.09
2018-06-25T09:10:59.663Z,1019.12
2018-06-25T09:12:00.543Z,1019.05
2018-06-25T09:12:59.783Z,1019.01
2018-06-25T09:13:59.755Z,1019.03
2018-06-25T09:14:59.679Z,1019.05
2018-06-25T09:15:59.670Z,1019.11
2018-06-25T09:16:59.800Z,1019.25
2018-06-25T09:17:59.752Z,1019.23
2018-06-25T09:18:59.659Z,1019.22
2018-06-25T09:19:59.670Z,1019.23
2018-06-25T09:20:59.788Z,1019.25
2018-06-25T09:21:59.780Z,1019.52
2018-06-25T09:22:59.785Z,1019.88
2018-06-25T09:23:59.691Z,1020.39
2018-06-25T09:24:59.672Z,1020.30
2018-06-25T09:25:59.696Z,1020.37
2018-06-25T09:26:59.751Z,1020.75
2018-06-25T09:27:59.763Z,1020.25
2018-06-25T09:28:59.699Z,1020.11
2018-06-25T09:29:59.754Z,1019.88
2018-06-25T09:30:59.711Z,1019.39
2018-06-25T09:31:59.822Z,1019.24
2018-06-25T09:33:00.135Z,1019.53
2018-06-25T09:33:59.772Z,1019.74
2018-06-25T09:34:59.785Z,1019.63
2018-06-25T09:35:59.820Z,1019.37
2018-06-25T09:36:59.825Z,1019.62
2018-06-25T09:37:59.728Z,1020.01
2018-06-25T09:38:59.747Z,1020.01
2018-06-25T09:39:59.765Z,1019.82
2018-06-25T09:40:59.957Z,1019.68
2018-06-25T09:42:00.013Z,1019.75
2018-06-25T09:42:59.992Z,1019.86
2018-06-25T09:44:00.759Z,1019.76
2018-06-25T09:44:59.749Z,1019.75
2018-06-25T09:45:59.881Z,1019.61
2018-06-25T09:46:59.957Z,1019.45
2018-06-25T09:48:01.560Z,1019.66
2018-06-25T09:48:59.866Z,1019.98
2018-06-25T09:50:00.041Z,1020.31
2018-06-25T09:50:59.865Z,1020.40
2018-06-25T09:52:01.002Z,1020.12
2018-06-25T09:52:59.903Z,1020.09
2018-06-25T09:53:59.917Z,1019.82
2018-06-25T09:55:00.042Z,1019.70
2018-06-25T09:55:59.876Z,1019.93
2018-06-25T09:56:59.850Z,1019.93
2018-06-25T09:58:00.254Z,1019.97
2018-06-25T09:58:59.996Z,1020.10
2018-06-25T09:59:59.841Z,1020.17
2018-06-25T10:00:59.870Z,1020.30
2018-06-25T10:01:59.951Z,1020.32
2018-06-25T10:02:59.928Z,1020.36
2018-06-25T10:03:59.921Z,1020.37
2018-06-25T10:05:00.574Z,1019.91
2018-06-25T10:05:59.891Z,1020.06
2018-06-25T10:07:00.766Z,1020.23
2018-06-25T10:08:01.977Z,1020.19
2018-06-25T10:08:59.996Z,1019.94
2018-06-25T10:10:00.194Z,1019.64
2018-06-25T10:11:00.572Z,1019.43
2018-06-25T10:11:59.981Z,1019.56
2018-06-25T10:13:00.600Z,1019.73
2018-06-25T10:14:00.703Z,1019.70
2018-06-25T10:14:59.996Z,1019.76
2018-06-25T10:15:59.949Z,1020.16
2018-06-25T10:16:59.963Z,1020.32
2018-06-25T10:17:59.951Z,1020.38
2018-06-25T10:18:59.942Z,1020.26
2018-06-25T10:19:59.950Z,1020.15
2018-06-25T10:21:00.159Z,1020.43
2018-06-25T10:21:59.991Z,1020.45
2018-06-25T10:23:00.013Z,1020.45
2018-06-25T10:23:59.971Z,1020.44
2018-06-25T10:25:00.044Z,1020.40
2018-06-25T10:25:59.977Z,1020.10
2018-06-25T10:26:59.994Z,1019.52
2018-06-25T10:28:00.094Z,1019.35
2018-06-25T10:29:00.016Z,1019.28
2018-06-25T10:30:00.074Z,1019.26
2018-06-25T10:31:00.065Z,1019.24
2018-06-25T10:32:00.014Z,1019.29
2018-06-25T10:33:00.008Z,1019.30
2018-06-25T10:33:59.995Z,1019.41
2018-06-25T10:35:00.049Z,1019.48
2018-06-25T10:36:00.040Z,1019.47
2018-06-25T10:37:00.040Z,1019.74
2018-06-25T10:38:01.091Z,1019.86
2018-06-25T10:39:00.048Z,1019.66
2018-06-25T10:40:00.038Z,1019.40
2018-06-25T10:41:00.102Z,1019.32
2018-06-25T10:42:00.679Z,1019.45
2018-06-25T10:43:00.093Z,1019.62
2018-06-25T10:44:00.164Z,1019.69
2018-06-25T10:45:00.079Z,1019.55
2018-06-25T10:46:00.137Z,1019.45
2018-06-25T10:47:00.073Z,1019.29
2018-06-25T10:48:00.118Z,1019.26
2018-06-25T10:49:00.103Z,1019.22
2018-06-25T10:50:00.149Z,1019.23
2018-06-25T10:51:00.173Z,1019.19
2018-06-25T10:52:00.187Z,1019.19
2018-06-25T10:53:00.125Z,1019.26
2018-06-25T10:54:00.157Z,1019.35
2018-06-25T10:55:00.136Z,1019.39
2018-06-25T10:56:00.152Z,1019.31
2018-06-25T10:57:00.145Z,1019.23
2018-06-25T10:58:00.151Z,1019.33
2018-06-25T10:59:00.185Z,1019.43
2018-06-25T11:00:00.380Z,1019.55
2018-06-25T11:01:00.749Z,1019.72
2018-06-25T11:02:00.140Z,1019.87
2018-06-25T11:03:00.181Z,1019.97
2018-06-25T11:04:00.226Z,1019.91
2018-06-25T11:05:00.176Z,1019.95
2018-06-25T11:06:00.177Z,1019.95
2018-06-25T11:07:00.188Z,1019.90
2018-06-25T11:08:00.217Z,1019.86
2018-06-25T11:09:00.294Z,1019.83
2018-06-25T11:10:00.233Z,1019.88
2018-06-25T11:11:00.316Z,1019.82
2018-06-25T11:12:00.249Z,1019.77
2018-06-25T11:13:00.257Z,1019.80
2018-06-25T11:14:00.258Z,1019.79
2018-06-25T11:15:00.232Z,1019.64
2018-06-25T11:16:00.257Z,1019.62
2018-06-25T11:17:00.238Z,1019.62
2018-06-25T11:18:00.236Z,1019.61
2018-06-25T11:19:00.253Z,1019.50
2018-06-25T11:20:00.255Z,1019.54
2018-06-25T11:21:00.279Z,1019.42
2018-06-25T11:22:00.426Z,1019.48
2018-06-25T11:23:00.274Z,1019.42
2018-06-25T11:24:00.298Z,1019.41
2018-06-25T11:25:00.298Z,1019.33
2018-06-25T11:26:00.308Z,1019.21
2018-06-25T11:27:00.384Z,1019.19
2018-06-25T11:28:00.339Z,1019.27
2018-06-25T11:29:00.300Z,1019.20
2018-06-25T11:30:00.349Z,1019.12
2018-06-25T11:31:00.301Z,1019.07
2018-06-25T11:32:00.411Z,1019.09
2018-06-25T11:33:00.320Z,1019.22
2018-06-25T11:34:00.376Z,1019.25
2018-06-25T11:35:00.408Z,1019.39
2018-06-25T11:36:00.423Z,1019.53
2018-06-25T11:37:00.421Z,1019.61
2018-06-25T11:38:00.420Z,1019.67
2018-06-25T11:39:00.378Z,1019.71
2018-06-25T11:40:00.373Z,1019.82
2018-06-25T11:41:00.380Z,1019.74
2018-06-25T11:42:00.489Z,1019.72
2018-06-25T11:43:00.435Z,1019.67
2018-06-25T11:44:01.153Z,1019.68
2018-06-25T11:45:00.498Z,1019.64
2018-06-25T11:46:01.132Z,1019.62
2018-06-25T11:47:00.411Z,1019.63
2018-06-25T11:48:00.469Z,1019.61
2018-06-25T11:49:00.521Z,1019.63
2018-06-25T11:50:00.564Z,1019.63
2018-06-25T11:51:02.636Z,1019.62
2018-06-25T11:52:00.497Z,1019.63
2018-06-25T11:53:02.081Z,1019.61
2018-06-25T11:54:00.656Z,1019.53
2018-06-25T11:55:00.654Z,1019.36
2018-06-25T11:56:00.578Z,1019.23
2018-06-25T11:57:00.494Z,1019.15
2018-06-25T11:58:00.536Z,1019.14
2018-06-25T11:59:00.763Z,1019.05
2018-06-25T12:00:00.596Z,1019.09
2018-06-25T12:01:00.484Z,1019.14
2018-06-25T12:02:00.582Z,1019.23
2018-06-25T12:03:00.613Z,1019.38
2018-06-25T12:04:02.133Z,1019.38
2018-06-25T12:05:00.536Z,1019.33
2018-06-25T12:06:00.513Z,1019.35